This is the latest recevied weather packets stored in our database for station/object SP6TSE-13. If no packets are shown the sender has not sent any weather packets the latest 10 day(s).
| Time | Temp. | Humidity | Pressure | Rain* | Wind** | Luminosity | Snow |
|---|---|---|---|---|---|---|---|
| 1778007504 | 18.33° C | 80% | 982.2 hPa | - | - | 0 W/m² | - |
| 1778004504 | 18.33° C | 80% | 982.2 hPa | - | - | 0 W/m² | - |
| 1777998503 | 22.78° C | 52% | 981.5 hPa | - | - | 0 W/m² | - |
| 1777996104 | 22.78° C | 52% | 981.5 hPa | - | - | 0 W/m² | - |
| 1777994904 | 27.78° C | 34% | 982 hPa | - | - | 0 W/m² | - |
| 1777993703 | 27.78° C | 34% | 982 hPa | - | - | 0 W/m² | - |
| 1777985304 | 25.56° C | 40% | 982.9 hPa | - | - | 0 W/m² | - |
| 1777984104 | 25.56° C | 40% | 982.9 hPa | - | - | 0 W/m² | - |
| 1777977503 | 23.89° C | 48% | 983.6 hPa | - | - | 0 W/m² | - |
| 1777974503 | 22.22° C | 54% | 984.1 hPa | - | - | 0 W/m² | - |
| 1777967904 | 17.78° C | 81% | 985 hPa | - | - | 0 W/m² | - |
| 1777967303 | 17.22° C | 79% | 985 hPa | - | - | 0 W/m² | - |
| 1777961304 | 13.33° C | 100% | 985.3 hPa | - | - | 0 W/m² | - |
| 1777960103 | 13.33° C | 100% | 985.3 hPa | - | - | 0 W/m² | - |
| 1777958904 | 13.33° C | 100% | 985.3 hPa | - | - | 0 W/m² | - |
| 1777952304 | 12.78° C | 100% | 985.7 hPa | - | - | 0 W/m² | - |
| 1777948704 | 12.78° C | 98% | 987 hPa | - | - | 0 W/m² | - |
| 1777948103 | 12.78° C | 98% | 987 hPa | - | - | 0 W/m² | - |
| 1777943303 | 12.78° C | 98% | 987 hPa | - | - | 0 W/m² | - |
| 1777941504 | 12.78° C | 100% | 987.3 hPa | - | - | 0 W/m² | - |
| 1777934903 | 12.22° C | 100% | 987.9 hPa | - | - | 0 W/m² | - |
| 1777931903 | - | - | - | - | - | - | - |
| 1777931303 | - | - | - | - | - | - | - |
| 1777920775 | - | - | - | - | - | - | - |
| 1777918376 | - | - | - | - | - | - | - |
* Rain since midnight (hover to see other rain measurements)
** Current wind speed in m/s (hover to see current wind gust speed)